createdAt,value
2022-09-28T00:01:43.849Z,2.17
2022-09-28T00:04:11.543Z,4.15
2022-09-28T00:06:38.373Z,4.18
2022-09-28T00:09:05.299Z,5.90
2022-09-28T00:11:31.913Z,3.08
2022-09-28T00:14:03.352Z,3.22
2022-09-28T00:16:33.782Z,4.82
2022-09-28T00:19:00.931Z,4.63
2022-09-28T00:21:30.058Z,3.55
2022-09-28T00:24:17.074Z,4.07
2022-09-28T00:26:48.454Z,3.95
2022-09-28T00:29:27.019Z,2.85
2022-09-28T00:31:59.836Z,2.13
2022-09-28T00:34:27.319Z,3.67
2022-09-28T00:36:53.809Z,3.13
2022-09-28T00:39:20.262Z,4.25
2022-09-28T00:41:46.869Z,3.05
2022-09-28T00:44:22.538Z,1.70
2022-09-28T00:46:51.795Z,2.22
2022-09-28T00:49:22.585Z,1.77
2022-09-28T00:51:48.932Z,4.30
2022-09-28T00:54:16.744Z,3.05
2022-09-28T00:56:47.303Z,1.95
2022-09-28T00:59:14.876Z,2.47
2022-09-28T01:01:41.446Z,7.85
2022-09-28T01:04:07.945Z,3.80
2022-09-28T01:06:36.376Z,2.75
2022-09-28T01:09:05.804Z,3.22
2022-09-28T01:11:33.730Z,1.27
2022-09-28T01:14:01.024Z,1.92
2022-09-28T01:16:56.936Z,4.10
2022-09-28T01:19:45.004Z,5.93
2022-09-28T01:22:29.735Z,2.05
2022-09-28T01:25:10.838Z,1.95
2022-09-28T01:27:42.976Z,4.88
2022-09-28T01:30:14.794Z,2.13
2022-09-28T01:33:07.073Z,1.73
2022-09-28T01:35:43.359Z,1.75
2022-09-28T01:38:17.500Z,1.92
2022-09-28T01:40:46.091Z,2.67
2022-09-28T01:43:25.419Z,3.55
2022-09-28T01:45:56.767Z,2.20
2022-09-28T01:48:29.157Z,3.13
2022-09-28T01:51:00.613Z,3.47
2022-09-28T01:53:39.018Z,3.13
2022-09-28T01:56:11.619Z,1.75
2022-09-28T01:59:06.468Z,7.18
2022-09-28T02:01:43.908Z,2.97
2022-09-28T02:04:16.892Z,3.17
2022-09-28T02:06:55.084Z,4.25
2022-09-28T02:09:47.226Z,3.35
2022-09-28T02:12:21.231Z,3.85
2022-09-28T02:14:49.770Z,3.20
2022-09-28T02:17:16.212Z,4.35
2022-09-28T02:19:43.933Z,4.35
2022-09-28T02:22:28.560Z,3.30
2022-09-28T02:24:59.708Z,2.90
2022-09-28T02:27:35.406Z,6.13
2022-09-28T02:30:03.896Z,5.00
2022-09-28T02:32:34.038Z,3.35
2022-09-28T02:35:00.424Z,7.00
2022-09-28T02:37:27.475Z,2.85
2022-09-28T02:39:53.842Z,4.93
2022-09-28T02:42:34.354Z,3.72
2022-09-28T02:45:50.253Z,3.03
2022-09-28T02:49:00.171Z,3.88
2022-09-28T02:51:44.210Z,5.82
2022-09-28T02:54:18.873Z,3.40
2022-09-28T02:57:00.233Z,2.75
2022-09-28T03:00:05.054Z,3.22
2022-09-28T03:02:40.325Z,3.85
2022-09-28T03:05:15.666Z,3.40
2022-09-28T03:07:54.373Z,3.42
2022-09-28T03:10:43.199Z,5.15
2022-09-28T03:13:11.807Z,7.97
2022-09-28T03:15:38.245Z,3.38
2022-09-28T03:18:04.597Z,3.08
2022-09-28T03:20:32.170Z,5.03
2022-09-28T03:23:23.182Z,4.70
2022-09-28T03:25:44.849Z,3.85
2022-09-28T03:28:11.202Z,3.75
2022-09-28T03:30:37.598Z,5.18
2022-09-28T03:33:04.402Z,3.78
2022-09-28T03:35:30.776Z,1.85
2022-09-28T03:37:57.297Z,1.75
2022-09-28T03:40:23.916Z,2.22
2022-09-28T03:42:50.505Z,4.38
2022-09-28T03:45:17.012Z,4.97
2022-09-28T03:47:46.857Z,3.28
2022-09-28T03:50:13.595Z,3.80
2022-09-28T03:52:39.942Z,5.05
2022-09-28T03:55:06.670Z,1.60
2022-09-28T03:57:32.994Z,1.55
2022-09-28T03:59:59.849Z,5.82
2022-09-28T04:02:26.356Z,1.83
2022-09-28T04:04:52.804Z,1.42
2022-09-28T04:07:19.133Z,2.88
2022-09-28T04:09:45.599Z,2.17
2022-09-28T04:12:11.950Z,1.35
2022-09-28T04:14:38.314Z,4.20
2022-09-28T04:17:06.226Z,2.72
2022-09-28T04:19:33.033Z,3.50
2022-09-28T04:22:00.683Z,1.77
2022-09-28T04:24:27.037Z,1.63
2022-09-28T04:27:13.520Z,0.95
2022-09-28T04:29:43.860Z,1.95
2022-09-28T04:32:11.342Z,2.22
2022-09-28T04:34:40.774Z,1.17
2022-09-28T04:37:10.208Z,2.85
2022-09-28T04:39:36.590Z,1.63
2022-09-28T04:42:03.022Z,0.98
2022-09-28T04:44:29.499Z,0.68
2022-09-28T04:46:56.231Z,1.70
2022-09-28T04:49:24.405Z,2.70
2022-09-28T04:51:50.833Z,0.77
2022-09-28T04:54:17.325Z,0.93
2022-09-28T04:56:43.729Z,0.60
2022-09-28T04:59:10.292Z,1.35
2022-09-28T05:01:36.961Z,1.35
2022-09-28T05:04:03.413Z,3.00
2022-09-28T05:06:30.690Z,1.25
2022-09-28T05:08:59.751Z,0.45
2022-09-28T05:11:26.162Z,1.60
2022-09-28T05:13:52.540Z,1.45
2022-09-28T05:16:20.312Z,0.38
2022-09-28T05:18:47.340Z,0.50
2022-09-28T05:21:15.514Z,0.88
2022-09-28T05:23:47.278Z,0.50
2022-09-28T05:26:14.692Z,0.60
2022-09-28T05:28:41.137Z,1.08
2022-09-28T05:31:07.888Z,2.10
2022-09-28T05:33:34.573Z,2.80
2022-09-28T05:36:01.908Z,2.72
2022-09-28T05:38:29.920Z,1.20
2022-09-28T05:40:56.615Z,1.60
2022-09-28T05:43:23.144Z,0.28
2022-09-28T05:45:54.495Z,4.22
2022-09-28T05:48:22.188Z,4.30
2022-09-28T05:50:52.585Z,2.22
2022-09-28T05:53:19.482Z,3.78
2022-09-28T05:55:46.679Z,1.33
2022-09-28T05:58:13.221Z,0.75
2022-09-28T06:00:39.562Z,1.60
2022-09-28T06:03:09.452Z,2.33
2022-09-28T06:05:37.146Z,0.50
2022-09-28T06:08:05.242Z,0.82
2022-09-28T06:10:32.564Z,1.02
2022-09-28T06:13:00.011Z,3.30
2022-09-28T06:15:28.932Z,2.85
2022-09-28T06:17:59.877Z,4.25
2022-09-28T06:20:27.515Z,2.35
2022-09-28T06:22:54.206Z,3.33
2022-09-28T06:25:22.152Z,1.30
2022-09-28T06:27:56.219Z,3.30
2022-09-28T06:30:26.745Z,2.72
2022-09-28T06:32:55.242Z,0.50
2022-09-28T06:35:23.193Z,3.55
2022-09-28T06:37:49.652Z,1.83
2022-09-28T06:40:16.142Z,4.05
2022-09-28T06:42:42.652Z,1.30
2022-09-28T06:45:09.340Z,3.75
2022-09-28T06:47:35.708Z,1.88
2022-09-28T06:50:02.077Z,2.70
2022-09-28T06:52:28.432Z,1.50
2022-09-28T06:54:54.831Z,2.50
2022-09-28T06:57:21.217Z,2.25
2022-09-28T06:59:47.539Z,1.85
2022-09-28T07:02:14.437Z,3.78
2022-09-28T07:04:43.651Z,5.15
2022-09-28T07:07:11.262Z,7.32
2022-09-28T07:09:42.202Z,8.70
2022-09-28T07:12:13.364Z,4.70
2022-09-28T07:14:47.822Z,1.60
2022-09-28T07:17:15.079Z,3.30
2022-09-28T07:19:41.836Z,1.45
2022-09-28T07:22:08.187Z,2.95
2022-09-28T07:24:34.516Z,2.00
2022-09-28T07:27:04.418Z,2.70
2022-09-28T07:29:30.794Z,2.40
2022-09-28T07:31:57.168Z,2.55
2022-09-28T07:34:23.963Z,2.80
2022-09-28T07:36:57.100Z,3.17
2022-09-28T07:39:23.659Z,2.88
2022-09-28T07:41:50.018Z,1.60
2022-09-28T07:44:17.501Z,3.33
2022-09-28T07:46:44.230Z,2.25
2022-09-28T07:49:12.365Z,3.95
2022-09-28T07:51:38.941Z,2.35
2022-09-28T07:54:06.467Z,3.90
2022-09-28T07:56:34.874Z,3.75
2022-09-28T07:59:01.274Z,1.90
2022-09-28T08:01:27.832Z,2.08
2022-09-28T08:03:56.262Z,3.10
2022-09-28T08:06:23.230Z,1.88
2022-09-28T08:08:50.407Z,5.13
2022-09-28T08:11:18.690Z,2.28
2022-09-28T08:13:46.441Z,1.70
2022-09-28T08:16:13.058Z,1.70
2022-09-28T08:18:39.494Z,2.13
2022-09-28T08:21:24.864Z,2.05
2022-09-28T08:23:51.742Z,3.00
2022-09-28T08:26:18.149Z,3.10
2022-09-28T08:28:45.159Z,4.45
2022-09-28T08:31:11.779Z,1.42
2022-09-28T08:33:38.472Z,3.13
2022-09-28T08:36:05.987Z,3.67
2022-09-28T08:38:33.012Z,3.13
2022-09-28T08:41:15.919Z,2.13
2022-09-28T08:44:03.749Z,4.50
2022-09-28T08:46:40.668Z,2.40
2022-09-28T08:49:26.737Z,2.50
2022-09-28T08:52:18.756Z,2.47
2022-09-28T08:54:58.645Z,2.88
2022-09-28T08:57:30.759Z,3.72
2022-09-28T08:59:59.808Z,6.15
2022-09-28T09:02:36.063Z,6.07
2022-09-28T09:05:14.789Z,2.58
2022-09-28T09:08:07.518Z,6.22
2022-09-28T09:10:45.507Z,7.28
2022-09-28T09:13:33.581Z,5.10
2022-09-28T09:16:25.621Z,2.83
2022-09-28T09:19:22.681Z,7.75
2022-09-28T09:22:05.185Z,7.88
2022-09-28T09:25:06.887Z,4.70
2022-09-28T09:27:47.109Z,3.05
2022-09-28T09:30:20.532Z,3.65
2022-09-28T09:35:53.338Z,4.32
2022-09-28T09:38:41.073Z,4.43
2022-09-28T09:41:32.490Z,5.40
2022-09-28T09:44:17.307Z,4.57
2022-09-28T09:46:59.663Z,8.18
2022-09-28T09:49:46.982Z,4.80
2022-09-28T09:52:27.121Z,4.65
2022-09-28T09:55:00.026Z,2.47
2022-09-28T09:57:30.591Z,5.20
2022-09-28T10:00:00.327Z,4.20
2022-09-28T10:02:32.904Z,4.80
2022-09-28T10:05:07.532Z,3.45
2022-09-28T10:07:45.051Z,6.57
2022-09-28T10:10:18.036Z,4.30
2022-09-28T10:12:44.943Z,5.93
2022-09-28T10:15:15.995Z,2.95
2022-09-28T10:17:42.654Z,6.45
2022-09-28T10:20:14.625Z,5.18
2022-09-28T10:22:41.349Z,3.50
2022-09-28T10:25:09.906Z,4.28
2022-09-28T10:27:44.233Z,5.25
2022-09-28T10:30:10.774Z,2.67
2022-09-28T10:32:48.810Z,2.13
2022-09-28T10:35:18.479Z,2.13
2022-09-28T10:38:07.365Z,2.45
2022-09-28T10:40:49.161Z,1.90
2022-09-28T10:43:39.617Z,2.55
2022-09-28T10:46:09.292Z,3.65
2022-09-28T10:49:18.080Z,2.95
2022-09-28T10:51:49.985Z,4.45
2022-09-28T10:54:31.004Z,2.05
2022-09-28T10:56:58.828Z,4.00
2022-09-28T10:59:30.824Z,4.55
2022-09-28T11:02:24.560Z,4.20
2022-09-28T11:04:55.471Z,3.50
2022-09-28T11:07:25.777Z,4.40
2022-09-28T11:09:54.603Z,2.95
2022-09-28T11:12:26.910Z,2.50
2022-09-28T11:15:04.335Z,2.05
2022-09-28T11:17:39.917Z,6.38
2022-09-28T11:20:27.842Z,3.15
2022-09-28T11:22:57.837Z,5.95
2022-09-28T11:25:29.001Z,2.38
2022-09-28T11:28:04.650Z,3.92
2022-09-28T11:30:44.787Z,7.10
2022-09-28T11:33:19.100Z,7.40
2022-09-28T11:35:51.550Z,4.10
2022-09-28T11:38:30.119Z,4.45
2022-09-28T11:41:14.827Z,4.45
2022-09-28T11:44:00.021Z,4.32
2022-09-28T11:46:38.430Z,8.80
2022-09-28T11:49:20.056Z,4.53
2022-09-28T11:51:49.695Z,3.03
2022-09-28T11:54:37.322Z,4.03
2022-09-28T11:57:06.222Z,3.45
2022-09-28T11:59:51.604Z,4.72
2022-09-28T12:02:23.336Z,4.57
2022-09-28T12:05:24.433Z,3.30
2022-09-28T12:07:56.047Z,4.43
2022-09-28T12:10:44.650Z,3.05
2022-09-28T12:13:16.539Z,6.63
2022-09-28T12:19:02.115Z,2.58
2022-09-28T12:21:48.363Z,2.00
2022-09-28T12:24:26.465Z,1.40
2022-09-28T12:27:11.443Z,2.72
2022-09-28T12:30:03.905Z,3.72
2022-09-28T12:32:39.379Z,4.28
2022-09-28T12:35:35.890Z,4.00
2022-09-28T12:38:24.578Z,2.95
2022-09-28T12:41:20.954Z,5.18
2022-09-28T12:43:57.368Z,3.42
2022-09-28T12:46:39.112Z,4.13
2022-09-28T12:50:13.828Z,4.30
2022-09-28T12:52:18.955Z,4.13
2022-09-28T12:54:56.988Z,2.53
2022-09-28T12:57:40.890Z,3.83
2022-09-28T13:00:15.923Z,2.10
2022-09-28T13:02:50.898Z,1.88
2022-09-28T13:05:36.125Z,3.20
2022-09-28T13:08:22.196Z,1.92
2022-09-28T13:11:07.871Z,2.90
2022-09-28T13:13:52.959Z,1.60
2022-09-28T13:16:31.977Z,3.50
2022-09-28T13:19:14.546Z,3.72
2022-09-28T13:21:52.639Z,2.20
2022-09-28T13:24:32.635Z,4.22
2022-09-28T13:27:09.206Z,4.13
2022-09-28T13:32:08.503Z,10.35
2022-09-28T13:34:37.410Z,5.03
2022-09-28T13:37:16.790Z,4.90
2022-09-28T13:39:45.958Z,2.75
2022-09-28T13:42:40.031Z,3.78
2022-09-28T13:45:30.506Z,3.17
2022-09-28T13:47:59.763Z,4.18
2022-09-28T13:50:39.063Z,3.85
2022-09-28T13:53:26.445Z,4.45
2022-09-28T13:56:01.449Z,6.22
2022-09-28T13:58:37.058Z,2.45
2022-09-28T14:01:11.014Z,6.45
2022-09-28T14:04:10.896Z,4.07
2022-09-28T14:06:37.437Z,5.75
2022-09-28T14:09:12.947Z,4.45
2022-09-28T14:11:58.462Z,12.82
2022-09-28T14:14:46.530Z,9.02
2022-09-28T14:17:19.021Z,6.20
2022-09-28T14:19:52.511Z,5.32
2022-09-28T14:22:29.266Z,4.97
2022-09-28T14:25:26.606Z,5.10
2022-09-28T14:28:29.179Z,4.97
2022-09-28T14:30:58.161Z,8.88
2022-09-28T14:33:28.747Z,17.98
2022-09-28T14:36:02.112Z,8.88
2022-09-28T14:38:54.479Z,6.15
2022-09-28T14:41:34.424Z,8.63
2022-09-28T14:44:11.454Z,9.00
2022-09-28T14:46:45.617Z,6.88
2022-09-28T14:49:19.303Z,14.95
2022-09-28T14:54:23.644Z,4.28
2022-09-28T14:56:52.955Z,5.47
2022-09-28T14:59:22.522Z,4.20
2022-09-28T15:02:05.715Z,17.27
2022-09-28T15:04:38.922Z,7.97
2022-09-28T15:07:05.380Z,5.78
2022-09-28T15:09:34.685Z,7.25
2022-09-28T15:12:07.572Z,8.18
2022-09-28T15:14:41.585Z,3.75
2022-09-28T15:17:13.354Z,4.53
2022-09-28T15:20:08.674Z,5.93
2022-09-28T15:22:36.198Z,7.43
2022-09-28T15:25:13.319Z,5.05
2022-09-28T15:27:41.216Z,5.85
2022-09-28T15:30:31.739Z,2.60
2022-09-28T15:33:20.341Z,2.75
2022-09-28T15:36:00.842Z,3.67
2022-09-28T15:38:27.838Z,4.32
2022-09-28T15:40:55.114Z,3.85
2022-09-28T15:43:26.945Z,4.45
2022-09-28T15:46:18.346Z,7.93
2022-09-28T15:48:56.826Z,4.55
2022-09-28T15:51:24.501Z,6.53
2022-09-28T15:53:59.572Z,7.25
2022-09-28T15:56:26.434Z,20.70
2022-09-28T15:59:15.697Z,5.75
2022-09-28T16:01:43.775Z,4.72
2022-09-28T16:04:51.625Z,7.85
2022-09-28T16:07:19.373Z,10.60
2022-09-28T16:10:26.294Z,8.07
2022-09-28T16:12:58.706Z,4.75
2022-09-28T16:15:29.318Z,10.85
2022-09-28T16:18:01.352Z,7.03
2022-09-28T16:20:34.150Z,8.23
2022-09-28T16:23:08.918Z,7.47
2022-09-28T16:25:39.067Z,6.60
2022-09-28T16:28:06.608Z,5.93
2022-09-28T16:30:34.879Z,7.95
2022-09-28T16:33:05.109Z,6.30
2022-09-28T16:35:48.761Z,8.65
2022-09-28T16:38:17.289Z,14.10
2022-09-28T16:40:49.556Z,5.68
2022-09-28T16:43:36.674Z,12.00
2022-09-28T16:46:15.872Z,9.32
2022-09-28T16:48:55.483Z,4.38
2022-09-28T16:51:23.185Z,4.70
2022-09-28T16:54:08.424Z,4.45
2022-09-28T16:56:36.572Z,9.10
2022-09-28T16:59:03.722Z,11.38
2022-09-28T17:01:31.194Z,9.10
2022-09-28T17:03:57.733Z,10.90
2022-09-28T17:06:27.226Z,13.32
2022-09-28T17:08:59.178Z,9.55
2022-09-28T17:11:25.840Z,5.30
2022-09-28T17:13:58.885Z,4.63
2022-09-28T17:16:51.014Z,4.85
2022-09-28T17:19:20.117Z,5.00
2022-09-28T17:21:46.911Z,5.07
2022-09-28T17:24:13.350Z,6.90
2022-09-28T17:26:42.242Z,5.28
2022-09-28T17:29:14.291Z,23.75
2022-09-28T17:31:45.645Z,5.93
2022-09-28T17:34:13.579Z,5.55
2022-09-28T17:36:41.554Z,8.45
2022-09-28T17:39:13.411Z,28.15
2022-09-28T17:41:40.689Z,15.48
2022-09-28T17:44:07.103Z,11.90
2022-09-28T17:46:36.565Z,12.63
2022-09-28T17:49:05.211Z,12.43
2022-09-28T17:51:34.737Z,16.63
2022-09-28T17:54:01.579Z,13.65
2022-09-28T17:56:32.079Z,13.70
2022-09-28T17:59:00.933Z,11.85
2022-09-28T18:01:33.754Z,10.30
2022-09-28T18:04:02.144Z,11.27
2022-09-28T18:06:29.033Z,10.23
2022-09-28T18:08:55.747Z,8.35
2022-09-28T18:11:22.624Z,10.38
2022-09-28T18:13:49.070Z,13.30
2022-09-28T18:16:15.825Z,9.02
2022-09-28T18:18:42.694Z,10.75
2022-09-28T18:21:09.241Z,12.27
2022-09-28T18:23:36.948Z,9.38
2022-09-28T18:26:04.121Z,11.80
2022-09-28T18:28:31.148Z,10.85
2022-09-28T18:30:57.563Z,9.15
2022-09-28T18:33:23.999Z,10.82
2022-09-28T18:35:54.732Z,9.02
2022-09-28T18:38:21.243Z,9.32
2022-09-28T18:40:48.278Z,8.77
2022-09-28T18:43:15.405Z,8.88
2022-09-28T18:45:41.946Z,11.82
2022-09-28T18:48:08.556Z,14.65
2022-09-28T18:50:35.186Z,12.80
2022-09-28T18:53:11.867Z,5.78
2022-09-28T18:55:39.881Z,5.55
2022-09-28T18:58:10.832Z,5.47
2022-09-28T19:00:39.321Z,7.43
2022-09-28T19:03:06.882Z,7.40
2022-09-28T19:05:33.726Z,6.30
2022-09-28T19:08:00.151Z,6.20
2022-09-28T19:10:26.743Z,4.90
2022-09-28T19:12:53.202Z,7.07
2022-09-28T19:15:21.003Z,4.78
2022-09-28T19:17:47.810Z,5.55
2022-09-28T19:20:14.218Z,6.82
2022-09-28T19:22:40.665Z,8.40
2022-09-28T19:25:08.303Z,11.18
2022-09-28T19:27:34.681Z,11.15
2022-09-28T19:30:01.107Z,22.98
2022-09-28T19:32:28.993Z,21.80
2022-09-28T19:34:56.076Z,17.38
2022-09-28T19:37:22.513Z,9.27
2022-09-28T19:39:48.925Z,9.32
2022-09-28T19:42:15.302Z,8.63
2022-09-28T19:44:42.063Z,9.02
2022-09-28T19:47:09.851Z,6.03
2022-09-28T19:49:38.891Z,6.70
2022-09-28T19:52:15.634Z,6.13
2022-09-28T19:54:57.394Z,5.00
2022-09-28T19:57:26.126Z,6.15
2022-09-28T19:59:54.970Z,6.95
2022-09-28T20:02:23.360Z,5.75
2022-09-28T20:04:49.829Z,7.38
2022-09-28T20:07:16.245Z,4.88
2022-09-28T20:09:42.644Z,5.05
2022-09-28T20:12:09.539Z,4.60
2022-09-28T20:14:38.298Z,5.28
2022-09-28T20:17:06.730Z,5.30
2022-09-28T20:19:33.483Z,8.50
2022-09-28T20:22:02.762Z,5.63
2022-09-28T20:24:29.509Z,6.55
2022-09-28T20:26:56.189Z,8.32
2022-09-28T20:29:24.228Z,8.13
2022-09-28T20:31:51.751Z,8.18
2022-09-28T20:34:18.379Z,6.65
2022-09-28T20:36:44.764Z,8.27
2022-09-28T20:39:11.298Z,5.80
2022-09-28T20:41:37.840Z,5.70
2022-09-28T20:44:06.519Z,5.07
2022-09-28T20:46:34.802Z,6.05
2022-09-28T20:49:01.590Z,7.22
2022-09-28T20:51:28.026Z,16.45
2022-09-28T20:53:56.604Z,9.75
2022-09-28T20:56:26.117Z,10.50
2022-09-28T20:58:53.261Z,6.65
2022-09-28T21:01:27.046Z,6.80
2022-09-28T21:03:56.141Z,4.95
2022-09-28T21:06:26.441Z,4.90
2022-09-28T21:08:53.015Z,5.80
2022-09-28T21:11:21.916Z,4.97
2022-09-28T21:13:52.606Z,6.35
2022-09-28T21:16:19.338Z,5.15
2022-09-28T21:18:45.873Z,4.82
2022-09-28T21:21:14.474Z,3.78
2022-09-28T21:23:41.059Z,4.57
2022-09-28T21:26:24.771Z,5.88
2022-09-28T21:28:55.689Z,5.30
2022-09-28T21:31:28.540Z,5.32
2022-09-28T21:33:56.304Z,4.20
2022-09-28T21:36:22.796Z,9.88
2022-09-28T21:38:49.474Z,7.47
2022-09-28T21:41:16.588Z,10.60
2022-09-28T21:43:43.018Z,7.25
2022-09-28T21:46:09.866Z,8.10
2022-09-28T21:48:36.285Z,8.27
2022-09-28T21:51:05.459Z,7.45
2022-09-28T21:53:37.235Z,7.20
2022-09-28T21:56:06.211Z,8.50
2022-09-28T21:58:34.587Z,8.02
2022-09-28T22:01:14.484Z,7.80
2022-09-28T22:03:42.478Z,6.65
2022-09-28T22:06:09.339Z,5.25
2022-09-28T22:08:37.104Z,6.88
2022-09-28T22:11:13.076Z,7.40
2022-09-28T22:13:44.214Z,7.88
2022-09-28T22:16:12.304Z,9.48
2022-09-28T22:18:39.264Z,5.68
2022-09-28T22:21:11.673Z,6.97
2022-09-28T22:23:39.079Z,7.57
2022-09-28T22:26:14.604Z,6.93
2022-09-28T22:28:52.261Z,4.72
2022-09-28T22:31:20.758Z,5.05
2022-09-28T22:33:47.240Z,5.80
2022-09-28T22:36:16.542Z,5.32
2022-09-28T22:38:44.329Z,7.10
2022-09-28T22:41:11.314Z,6.88
2022-09-28T22:43:37.984Z,4.47
2022-09-28T22:46:10.682Z,4.75
2022-09-28T22:48:37.688Z,5.20
2022-09-28T22:51:06.160Z,4.78
2022-09-28T22:53:33.695Z,6.72
2022-09-28T22:56:01.501Z,7.07
2022-09-28T22:58:27.945Z,5.05
2022-09-28T23:00:56.311Z,5.70
2022-09-28T23:03:23.026Z,7.10
2022-09-28T23:05:56.386Z,4.97
2022-09-28T23:08:23.875Z,8.02
2022-09-28T23:10:51.621Z,5.20
2022-09-28T23:13:18.466Z,4.97
2022-09-28T23:15:54.992Z,7.90
2022-09-28T23:18:21.487Z,8.07
2022-09-28T23:20:55.932Z,7.13
2022-09-28T23:23:22.926Z,8.27
2022-09-28T23:25:50.270Z,9.98
2022-09-28T23:28:17.766Z,5.32
2022-09-28T23:30:44.245Z,5.75
2022-09-28T23:33:20.850Z,11.52
2022-09-28T23:35:47.374Z,4.25
2022-09-28T23:38:15.167Z,4.18
2022-09-28T23:40:41.762Z,5.22
2022-09-28T23:43:08.497Z,4.53
2022-09-28T23:45:34.844Z,7.28
2022-09-28T23:48:01.671Z,6.07
2022-09-28T23:50:28.269Z,6.75
2022-09-28T23:52:54.681Z,9.63
2022-09-28T23:55:21.049Z,4.18
2022-09-28T23:57:47.407Z,5.93
